All
Yarram Airport (Yarram, Victoria) YYRM Weather
|
Yarram, Victoria (YYRM)
Clear skies
Windy |
|
60 °F |
There is no TAF data available at YYRM. Showing TAF data for YLTV (29 mi NW).
TGN Terminal Area Forecast (no data for YYRM)
| Here is the undecoded forecast: 2026/05/04 07:07 YLTV 040707Z 0408/0420 31010KT CAVOK FM041200 29014KT 9999 -SHRA SCT035 FM041700 28012KT 9999 -SHRA BKN025 INTER 0417/0420 27022G32KT 4000 SHRA BKN012 RMK FM040800 MOD TURB BLW 5000FT T 16 13 14 13 Q 1010 1011 1011 1011 |
Recent YYRM METAR history
| Date | Time (AEST) | Flight Rules | Wind Dir. | Speed | Type | Height AGL (ft) | Visibility | Temp (°C) | Temp (°F) | Dew Point (°C) | Dew Point (°F) | Rel. Humid. | Pressure | Density Altitude | Remarks |
|---|---|---|---|---|---|---|---|---|---|---|---|---|---|---|---|
| 04-May | 11:00PM | n/a | 330° | 13 kt | Missing | 16° | 60° | 9° | 48° | 63% | 1011 mb | 247 ft | |||
| 04-May | 10:00PM | n/a | 330° | 12 kt | Missing | 16° | 60° | 9° | 48° | 63% | 1011 mb | 247 ft | |||
| 04-May | 09:00PM | n/a | 340° | 7 kt | Missing | 16° | 60° | 8° | 46° | 59% | 1011 mb | 247 ft | |||
| 04-May | 08:00PM | n/a | 60° | 5 kt | Missing | 13° | 55° | 8° | 46° | 72% | 1010 mb | -83 ft | |||
| 04-May | 07:00PM | n/a | 50° | 5 kt | Missing | 15° | 59° | 7° | 44° | 59% | 1010 mb | 157 ft | |||
| 04-May | 06:00PM | n/a | 10° | 7 kt | Missing | 16° | 60° | 7° | 44° | 55% | 1009 mb | 306 ft | |||
| 04-May | 05:00PM | n/a | 360° | 7 kt | Missing | 18° | 64° | 8° | 46° | 52% | 1009 mb | 546 ft | |||
| 04-May | 04:00PM | n/a | 340° | 7 kt | Missing | 19° | 66° | 8° | 46° | 49% | 1009 mb | 666 ft | |||
| 04-May | 03:00PM | n/a | 330° | 12 kt | Missing | 20° | 68° | 8° | 46° | 46% | 1009 mb | 786 ft | |||
| 04-May | 02:00PM | n/a | 350° | 15 kt | Missing | 20° | 68° | 7° | 44° | 43% | 1009 mb | 786 ft | |||
| 04-May | 01:00PM | n/a | 360° | 14 kt | Missing | 20° | 68° | 9° | 48° | 49% | 1009 mb | 786 ft | |||
| 04-May | 12:00PM | n/a | 360° | 14 kt | Missing | 20° | 68° | 9° | 48° | 49% | 1010 mb | 757 ft | |||
| 04-May | 11:00AM | n/a | 360° | 11 kt | Missing | 19° | 66° | 10° | 50° | 56% | 1011 mb | 607 ft | |||
| 04-May | 10:00AM | n/a | 10° | 10 kt | Missing | 18° | 64° | 10° | 50° | 59% | 1012 mb | 458 ft | |||
| 04-May | 09:00AM | n/a | 40° | 7 kt | Missing | 16° | 60° | 13° | 55° | 82% | 1012 mb | 218 ft | |||
| 04-May | 08:00AM | n/a | 20° | 7 kt | Missing | 13° | 55° | 13° | 55° | 100% | 1012 mb | -142 ft | |||
| 04-May | 07:00AM | n/a | 40° | 5 kt | Missing | 9° | 48° | 9° | 48° | 100% | 1011 mb | -593 ft | |||
| 04-May | 06:00AM | n/a | 350° | 3 kt | Missing | 10° | 50° | 10° | 50° | 100% | 1011 mb | -473 ft | |||
| 04-May | 05:00AM | n/a | 50° | 6 kt | Missing | 10° | 50° | 10° | 50° | 100% | 1011 mb | -473 ft | |||
| 04-May | 04:00AM | n/a | 30° | 3 kt | Missing | 11° | 51° | 11° | 51° | 100% | 1011 mb | -353 ft | |||
| 04-May | 03:00AM | n/a | 290° | 4 kt | Missing | 12° | 53° | 9° | 48° | 82% | 1011 mb | -233 ft | |||
| 04-May | 02:00AM | n/a | 260° | 4 kt | Missing | 13° | 55° | 12° | 53° | 94% | 1012 mb | -142 ft | |||
| 04-May | 01:00AM | n/a | 280° | 7 kt | Missing | 14° | 57° | 12° | 53° | 88% | 1012 mb | -22 ft | |||
| 04-May | 12:00AM | n/a | 320° | 3 kt | Missing | 13° | 55° | 13° | 55° | 100% | 1013 mb | -172 ft |
Login
| Your browser is unsupported. upgrade your browser |
